Terminal Aerodrome Forecast
Issued by NWS New Orleans/Baton Rouge, LA

Current Version | Previous Version | Text Only | Print | Product List | Glossary On
Versions: 1 2 3 4 5 6 7 8 9 10 11 12 13 14 15 16 17 18 19 20 21 22 23 24 25 26 27 28 29 30 31 32 33 34 35 36 37 38 39 40 41 42 43 44 45 46 47 48 49 50
000
FTUS44 KLIX 221325 AAB
TAFNEW
TAF AMD
KNEW 221325Z 2213/2312 30027G33KT P6SM BKN018 BKN024
     FM221600 26028G35KT P6SM BKN040
     FM222300 29029G35KT P6SM SCT060
     FM230800 31020G30KT P6SM FEW070=

USA.gov is the U.S. government's official web portal to all federal, state and local government web resources and services.